Time;durP1;ratioP1;P1;durP2;ratioP2;P2;SDS_P1;SDS_P2;PMS_P1;PMS_P2;Temp;Humidity;BMP_temperature;BMP_pressure;BME280_temperature;BME280_humidity;BME280_pressure;Samples;Min_cycle;Max_cycle;Signal;HPM_P1;HPM_P2
2022/07/05 00:00:10;;;;;;;0.50;0.50;;;16.80;99.90;18.10;101978.00;;;;5034352;28;20732;-66
2022/07/05 00:03:35;;;;;;;0.40;0.40;;;16.90;99.90;18.40;101982.00;;;;5051100;28;20191;-66
2022/07/05 00:06:35;;;;;;;0.90;0.90;;;16.90;99.90;18.50;101978.00;;;;5034364;28;20553;-67
2022/07/05 00:09:28;;;;;;;0.40;0.40;;;17.30;99.90;17.80;101975.00;;;;5034270;28;20216;-66
2022/07/05 00:12:32;;;;;;;0.30;0.30;;;17.20;99.90;18.00;101975.00;;;;5050493;28;20211;-66
2022/07/05 00:15:33;;;;;;;0.40;0.40;;;17.10;99.90;18.70;101980.00;;;;5034256;28;20180;-66
2022/07/05 00:18:23;;;;;;;0.70;0.70;;;17.40;99.90;18.90;101971.00;;;;5050701;28;20697;-67
2022/07/05 00:21:33;;;;;;;0.40;0.40;;;17.70;99.90;19.00;101975.00;;;;5050778;28;20197;-66
2022/07/05 00:24:21;;;;;;;0.30;0.30;;;17.80;99.90;18.30;101926.00;;;;5050426;28;20203;-67
2022/07/05 00:27:26;;;;;;;0.33;0.33;;;17.80;99.90;18.00;101976.00;;;;5050343;28;20230;-66
2022/07/05 00:30:28;;;;;;;0.40;0.40;;;17.40;99.90;17.90;101964.00;;;;5050437;28;20177;-66
2022/07/05 00:33:31;;;;;;;0.40;0.40;;;17.20;99.90;18.70;101981.00;;;;5050233;28;20672;-67
2022/07/05 00:36:32;;;;;;;0.40;0.40;;;17.40;99.90;18.80;101969.00;;;;5034056;28;20674;-66
2022/07/05 00:39:16;;;;;;;0.40;0.40;;;17.70;99.90;18.90;101967.00;;;;5050375;28;20245;-67
2022/07/05 00:42:03;;;;;;;0.40;0.40;;;17.80;99.90;18.90;101970.00;;;;5033669;28;20188;-67
2022/07/05 00:44:41;;;;;;;0.40;0.40;;;17.70;99.90;18.10;101967.00;;;;5050518;28;20183;-67
2022/07/05 00:47:42;;;;;;;0.40;0.40;;;17.40;99.90;18.70;101970.00;;;;5049972;28;20267;-66
2022/07/05 00:50:43;;;;;;;0.50;0.50;;;17.40;99.90;18.30;101972.00;;;;5050032;28;20183;-66
2022/07/05 00:53:35;;;;;;;1.47;1.17;;;17.50;99.90;18.30;101970.00;;;;5033083;28;20743;-66
2022/07/05 00:56:41;;;;;;;0.40;0.40;;;17.30;99.90;18.60;101978.00;;;;5032008;28;20191;-66
2022/07/05 00:59:17;;;;;;;0.40;0.40;;;17.40;99.90;18.60;101934.00;;;;5050157;28;20262;-66
2022/07/05 01:02:41;;;;;;;0.40;0.40;;;17.60;99.90;18.30;101962.00;;;;5033759;28;20544;-67
2022/07/05 01:05:42;;;;;;;0.40;0.40;;;17.40;99.90;18.60;101962.00;;;;5045971;28;20192;-67
2022/07/05 01:08:46;;;;;;;0.40;0.40;;;17.50;99.90;18.40;101960.00;;;;5049885;28;20180;-67
2022/07/05 01:11:48;;;;;;;0.40;0.40;;;17.50;99.90;18.50;101964.00;;;;5033176;28;20212;-67
2022/07/05 01:14:41;;;;;;;0.40;0.40;;;17.40;99.90;18.30;101962.00;;;;5033714;28;20559;-67
2022/07/05 01:17:34;;;;;;;0.67;0.67;;;17.40;99.90;18.10;101959.00;;;;5049834;28;20173;-67
2022/07/05 01:20:28;;;;;;;0.30;0.30;;;17.20;99.90;17.60;101968.00;;;;5033169;28;20334;-66
2022/07/05 01:23:30;;;;;;;0.43;0.43;;;16.90;99.90;18.20;101970.00;;;;5033066;28;20279;-67
2022/07/05 01:26:14;;;;;;;0.30;0.30;;;17.10;99.90;16.80;101961.00;;;;5033104;28;20183;-67
2022/07/05 01:28:57;;;;;;;0.30;0.30;;;16.70;99.90;16.60;101962.00;;;;5049754;28;20209;-66
2022/07/05 01:31:42;;;;;;;1.10;1.10;;;16.30;99.90;17.20;101964.00;;;;5048904;28;20574;-67
2022/07/05 01:34:15;;;;;;;0.40;0.40;;;16.30;99.90;17.80;101957.00;;;;5033207;28;20191;-66
2022/07/05 01:36:43;;;;;;;0.40;0.40;;;16.60;99.90;17.50;101967.00;;;;5049420;28;20266;-67
2022/07/05 01:39:27;;;;;;;0.43;0.43;;;16.70;99.90;17.50;101952.00;;;;5049754;28;20163;-67
2022/07/05 01:42:21;;;;;;;0.40;0.40;;;16.70;99.90;17.40;101961.00;;;;5049125;28;20189;-66
2022/07/05 01:45:40;;;;;;;0.40;0.40;;;16.70;99.90;17.30;101953.00;;;;5033847;28;20183;-67
2022/07/05 01:48:35;;;;;;;0.40;0.40;;;16.60;99.90;17.40;101945.00;;;;5032922;28;20232;-67
2022/07/05 01:51:41;;;;;;;0.77;0.77;;;16.70;99.90;17.70;101954.00;;;;5032636;28;20609;-67
2022/07/05 01:55:01;;;;;;;1.07;1.07;;;16.70;99.90;16.70;101948.00;;;;5032521;28;20281;-66
2022/07/05 01:58:02;;;;;;;0.30;0.30;;;16.30;99.90;16.90;101959.00;;;;5032822;28;20192;-66
2022/07/05 02:00:56;;;;;;;0.40;0.40;;;16.20;99.90;17.30;101954.00;;;;5033509;28;20187;-67
2022/07/05 02:04:00;;;;;;;0.30;0.30;;;16.40;99.90;17.30;101959.00;;;;5049213;28;20541;-66
2022/07/05 02:07:04;;;;;;;0.30;0.30;;;16.50;99.90;17.20;101950.00;;;;5048645;28;20179;-67
2022/07/05 02:10:05;;;;;;;0.30;0.30;;;16.40;99.90;17.70;101954.00;;;;5049149;28;20182;-66
2022/07/05 02:13:09;;;;;;;6.00;0.70;;;16.60;99.90;16.70;101955.00;;;;5048656;28;20219;-65
2022/07/05 02:16:12;;;;;;;0.43;0.43;;;16.60;99.90;15.80;101950.00;;;;5048877;28;20178;-65
2022/07/05 02:19:04;;;;;;;0.30;0.30;;;15.80;99.90;15.70;101946.00;;;;5032180;28;20526;-65
2022/07/05 02:22:23;;;;;;;0.30;0.30;;;15.50;99.90;16.50;101955.00;;;;5031899;28;20183;-65
2022/07/05 02:25:24;;;;;;;0.30;0.30;;;15.60;99.90;16.80;101964.00;;;;5032288;28;20189;-66
2022/07/05 02:28:08;;;;;;;0.40;0.40;;;15.90;99.90;16.50;101947.00;;;;5048741;28;20178;-66
2022/07/05 02:30:51;;;;;;;0.30;0.30;;;15.90;99.90;16.80;101953.00;;;;5048318;28;20194;-65
2022/07/05 02:33:38;;;;;;;0.30;0.30;;;15.80;99.90;16.80;101913.00;;;;5031729;28;20194;-66
2022/07/05 02:36:12;;;;;;;0.30;0.30;;;15.90;99.90;16.80;101943.00;;;;5033316;28;20233;-66
2022/07/05 02:38:56;;;;;;;0.40;0.40;;;15.90;99.90;16.50;101948.00;;;;5032235;28;20272;-66
2022/07/05 02:41:44;;;;;;;0.30;0.30;;;15.90;99.90;17.20;101942.00;;;;5048624;28;20191;-65
2022/07/05 02:44:35;;;;;;;0.40;0.40;;;16.10;99.90;17.30;101947.00;;;;5032042;28;20191;-65
2022/07/05 02:47:29;;;;;;;0.30;0.30;;;16.20;99.90;16.90;101937.00;;;;5033038;28;20182;-66
2022/07/05 02:50:31;;;;;;;0.30;0.30;;;16.30;99.90;16.90;101956.00;;;;5032152;28;20217;-66
2022/07/05 02:53:34;;;;;;;0.30;0.30;;;16.00;99.90;16.50;101939.00;;;;5048086;28;20320;-65
2022/07/05 02:56:35;;;;;;;0.30;0.30;;;16.10;99.90;17.40;101951.00;;;;5048658;28;20213;-66
2022/07/05 02:59:25;;;;;;;0.40;0.40;;;16.20;99.90;17.90;101945.00;;;;5031912;28;20179;-65
2022/07/05 03:02:09;;;;;;;0.40;0.40;;;16.60;99.90;17.50;101918.00;;;;5048189;28;20180;-65
2022/07/05 03:04:56;;;;;;;0.83;0.83;;;16.50;99.90;16.80;101938.00;;;;5048271;28;20270;-65
2022/07/05 03:07:56;;;;;;;0.40;0.40;;;16.30;99.90;17.20;101940.00;;;;5031634;28;20194;-66
2022/07/05 03:11:05;;;;;;;0.43;0.43;;;16.30;99.90;16.50;101951.00;;;;5048151;28;20601;-66
2022/07/05 03:14:05;;;;;;;0.30;0.30;;;16.10;99.90;16.00;101939.00;;;;5032648;28;20221;-65
2022/07/05 03:16:56;;;;;;;0.30;0.30;;;15.90;99.90;16.20;101951.00;;;;5048417;28;20606;-65
2022/07/05 03:19:40;;;;;;;1.63;1.63;;;15.70;99.90;16.10;101901.00;;;;5050783;28;20175;-66
2022/07/05 03:22:26;;;;;;;0.40;0.40;;;15.60;99.90;16.80;101959.00;;;;5036770;28;20189;-66
2022/07/05 03:25:27;;;;;;;0.30;0.30;;;15.80;99.90;17.10;101948.00;;;;5037084;28;20254;-65
2022/07/05 03:28:16;;;;;;;0.30;0.30;;;16.20;99.90;16.80;101902.00;;;;5051964;28;20171;-67
2022/07/05 03:30:52;;;;;;;0.40;0.40;;;16.30;99.90;17.30;101922.00;;;;5051911;28;20175;-65
2022/07/05 03:33:56;;;;;;;0.30;0.30;;;16.40;99.90;17.20;101954.00;;;;5036514;28;20185;-65
2022/07/05 03:36:57;;;;;;;0.37;0.37;;;16.20;99.90;17.30;101946.00;;;;5041106;28;20271;-66
2022/07/05 03:40:15;;;;;;;0.40;0.40;;;16.40;99.90;17.60;101959.00;;;;5015160;28;20182;-65
2022/07/05 03:43:16;;;;;;;0.40;0.40;;;16.50;99.90;16.50;101950.00;;;;5014940;28;20235;-65
2022/07/05 03:46:02;;;;;;;0.30;0.30;;;16.30;99.90;16.10;101964.00;;;;5014769;28;20249;-65
2022/07/05 03:49:03;;;;;;;0.40;0.40;;;15.90;99.90;15.50;101966.00;;;;5016044;28;20186;-65
2022/07/05 03:52:24;;;;;;;0.30;0.30;;;15.60;99.90;15.80;101965.00;;;;5015125;28;20210;-65
2022/07/05 03:55:45;;;;;;;1.23;1.23;;;15.40;99.90;16.50;101971.00;;;;5005355;28;20256;-65
2022/07/05 03:58:47;;;;;;;0.73;0.73;;;15.60;99.90;17.00;101970.00;;;;5004967;28;20173;-65
2022/07/05 04:01:48;;;;;;;0.40;0.40;;;15.80;99.90;15.80;101953.00;;;;5031194;28;20183;-65
2022/07/05 04:04:38;;;;;;;0.40;0.40;;;15.60;99.90;16.00;101973.00;;;;5014816;28;20180;-65
2022/07/05 04:07:22;;;;;;;0.60;0.60;;;15.60;99.90;16.50;101957.00;;;;5014438;28;20202;-66
2022/07/05 04:10:13;;;;;;;0.40;0.40;;;15.70;99.90;16.80;101969.00;;;;5014222;28;20184;-66
2022/07/05 04:13:37;;;;;;;4.07;1.40;;;15.90;99.90;17.30;101974.00;;;;5014298;28;20209;-65
2022/07/05 04:16:38;;;;;;;0.30;0.30;;;16.40;99.90;15.70;101975.00;;;;5014157;28;20192;-65
2022/07/05 04:19:39;;;;;;;0.30;0.30;;;15.60;99.90;16.70;101977.00;;;;4998124;28;20187;-65
2022/07/05 04:22:25;;;;;;;0.40;0.40;;;15.70;99.90;16.20;101941.00;;;;5015615;28;20184;-66
2022/07/05 04:25:17;;;;;;;2.17;2.07;;;15.90;99.90;15.60;101988.00;;;;5014316;28;20306;-66
2022/07/05 04:28:12;;;;;;;0.40;0.40;;;15.50;99.90;15.60;101991.00;;;;5014492;28;20180;-66
2022/07/05 04:31:13;;;;;;;0.30;0.30;;;15.30;99.90;16.80;101982.00;;;;5015277;28;20168;-66
2022/07/05 04:34:19;;;;;;;0.30;0.30;;;15.60;99.90;16.30;101987.00;;;;5015648;28;20186;-66
2022/07/05 04:36:51;;;;;;;0.60;0.60;;;15.80;99.90;15.70;101998.00;;;;5014594;28;20173;-66
2022/07/05 04:40:11;;;;;;;0.30;0.30;;;15.50;99.90;17.60;101997.00;;;;5014306;28;20185;-66
2022/07/05 04:43:02;;;;;;;0.30;0.30;;;16.20;99.90;17.00;101990.00;;;;5034502;28;20544;-66
2022/07/05 04:46:03;;;;;;;0.30;0.30;;;16.40;99.90;16.40;101996.00;;;;5013808;28;20286;-66
2022/07/05 04:49:05;;;;;;;0.20;0.20;;;16.10;99.90;16.40;101998.00;;;;5014360;28;20190;-66
2022/07/05 04:52:10;;;;;;;0.27;0.27;;;16.10;99.90;16.70;102005.00;;;;5014955;28;20213;-66
2022/07/05 04:54:56;;;;;;;0.20;0.20;;;16.30;99.90;18.90;102021.00;;;;5014862;28;20715;-66
2022/07/05 04:57:43;;;;;;;0.10;0.10;;;17.50;99.90;18.00;102005.00;;;;4997170;28;20253;-66
2022/07/05 05:00:44;;;;;;;0.20;0.20;;;17.30;99.90;17.90;102003.00;;;;4982917;28;20185;-66
2022/07/05 05:03:57;;;;;;;0.10;0.10;;;17.70;99.90;18.20;101990.00;;;;5013870;28;20187;-66
2022/07/05 05:07:04;;;;;;;0.20;0.20;;;17.30;99.90;19.70;102006.00;;;;5002780;28;20251;-66
2022/07/05 05:09:48;;;;;;;0.13;0.13;;;18.10;99.90;22.50;102041.00;;;;4997785;28;20205;-67
2022/07/05 05:12:32;;;;;;;0.20;0.20;;;20.20;99.90;19.00;102018.00;;;;5013160;28;20611;-66
2022/07/05 05:15:56;;;;;;;0.20;0.20;;;19.30;99.90;19.60;102019.00;;;;5014685;28;20654;-66
2022/07/05 05:18:51;;;;;;;0.20;0.20;;;18.70;99.90;17.60;101986.00;;;;5013599;28;20223;-66
2022/07/05 05:21:52;;;;;;;0.30;0.30;;;17.90;99.90;17.80;101973.00;;;;5013814;28;20710;-66
2022/07/05 05:25:13;;;;;;;1.77;1.67;;;17.40;99.90;17.30;102003.00;;;;5013262;28;20184;-67
2022/07/05 05:28:27;;;;;;;0.60;0.60;;;16.70;99.90;16.70;102005.00;;;;5013175;28;20623;-66
2022/07/05 05:31:51;;;;;;;0.37;0.37;;;16.20;99.90;16.30;102023.00;;;;5014274;28;20670;-66
2022/07/05 05:34:55;;;;;;;0.40;0.40;;;16.30;99.90;17.00;102018.00;;;;5003506;28;20562;-66
2022/07/05 05:38:07;;;;;;;0.10;0.10;;;16.60;99.90;20.20;102038.00;;;;5031013;28;20224;-67
2022/07/05 05:41:08;;;;;;;0.22;0.22;;;18.20;99.90;20.60;102049.00;;;;5013021;28;20266;-67
2022/07/05 05:44:37;;;;;;;0.30;0.30;;;19.30;99.90;22.90;102076.00;;;;5013946;28;20199;-67
2022/07/05 05:47:31;;;;;;;0.40;0.40;;;20.50;99.90;25.90;102143.00;;;;5007622;28;20176;-67
2022/07/05 05:50:28;;;;;;;0.13;0.13;;;23.40;99.90;23.40;102131.00;;;;5013176;28;20265;-67
2022/07/05 05:53:30;;;;;;;0.10;0.10;;;22.30;99.90;25.70;102157.00;;;;5013122;28;20706;-67
2022/07/05 05:56:13;;;;;;;0.10;0.10;;;23.30;99.90;25.70;102171.00;;;;4996195;28;20547;-67
2022/07/05 05:59:04;;;;;;;0.10;0.10;;;24.10;99.90;28.40;102177.00;;;;5014183;28;20664;-67
2022/07/05 06:02:12;;;;;;;21.20;1.65;;;25.70;99.90;23.90;102181.00;;;;5013916;28;20179;-67
2022/07/05 06:04:56;;;;;;;0.30;0.30;;;25.00;99.90;21.70;102108.00;;;;5012691;28;20168;-67
2022/07/05 06:08:02;;;;;;;1.30;1.20;;;22.00;99.90;20.10;102042.00;;;;5013874;28;20654;-67
2022/07/05 06:10:45;;;;;;;0.75;0.75;;;20.30;99.90;23.50;102136.00;;;;5013762;28;20186;-67
2022/07/05 06:14:04;;;;;;;2.03;1.85;;;21.90;99.90;23.90;102152.00;;;;5012593;28;20218;-67
2022/07/05 06:17:13;;;;;;;0.10;0.10;;;22.40;99.90;23.50;102107.00;;;;5013729;28;20207;-67
2022/07/05 06:20:15;;;;;;;1.35;1.33;;;21.70;99.90;26.70;102152.00;;;;5013588;28;20582;-68
2022/07/05 06:23:17;;;;;;;0.45;0.45;;;24.10;99.90;22.90;102162.00;;;;5012229;28;20222;-67
2022/07/05 06:26:35;;;;;;;0.55;0.47;;;23.70;99.90;21.80;102105.00;;;;5012433;28;20175;-67
2022/07/05 06:29:24;;;;;;;0.10;0.10;;;21.50;99.90;21.30;102077.00;;;;5013591;28;20182;-67
2022/07/05 06:32:07;;;;;;;0.10;0.10;;;20.50;99.90;23.00;102128.00;;;;5012247;28;20215;-67
2022/07/05 06:34:58;;;;;;;0.35;0.32;;;21.40;99.90;21.10;102093.00;;;;4996003;28;20614;-67
2022/07/05 06:37:47;;;;;;;6.68;4.20;;;20.80;99.90;20.00;102064.00;;;;5012264;28;20540;-67
2022/07/05 06:40:41;;;;;;;0.73;0.73;;;19.80;99.90;20.20;102064.00;;;;5013410;28;20186;-67
2022/07/05 06:43:50;;;;;;;0.38;0.38;;;19.80;99.90;21.40;102073.00;;;;5013407;28;20246;-67
2022/07/05 06:46:42;;;;;;;4.18;2.28;;;20.00;99.90;19.80;102060.00;;;;5012594;28;20532;-67
2022/07/05 06:49:45;;;;;;;0.20;0.20;;;19.70;99.90;22.30;102094.00;;;;5013403;28;20179;-67
2022/07/05 06:52:49;;;;;;;0.10;0.10;;;20.50;99.90;24.50;102132.00;;;;5011984;28;20302;-65
2022/07/05 06:55:44;;;;;;;0.85;0.85;;;22.20;99.90;26.60;102191.00;;;;5017175;28;20183;-68
2022/07/05 06:58:47;;;;;;;2.40;2.20;;;24.40;99.90;24.40;102190.00;;;;5017330;28;20211;-68
2022/07/05 07:02:06;;;;;;;1.95;1.15;;;24.00;99.90;23.70;102184.00;;;;5016256;28;20187;-65
2022/07/05 07:05:07;;;;;;;5.15;0.95;;;23.70;99.90;22.70;102144.00;;;;5015903;28;20183;-67
2022/07/05 07:11:33;;;;;;;0.10;0.10;;;22.60;99.90;25.90;102199.00;;;;5017047;28;20269;-66
2022/07/05 07:14:37;;;;;;;0.17;0.17;;;23.90;99.90;28.40;102221.00;;;;5048571;28;20289;-66
2022/07/05 07:17:37;;;;;;;24.30;1.27;;;25.70;99.90;31.10;102236.00;;;;5016899;28;20171;-67
2022/07/05 07:20:41;;;;;;;0.43;0.43;;;28.80;99.90;29.10;102239.00;;;;5017238;28;20187;-66
2022/07/05 07:23:24;;;;;;;0.28;0.28;;;28.40;99.90;25.10;102202.00;;;;5015334;28;20191;-66
2022/07/05 07:26:18;;;;;;;0.35;0.35;;;25.50;99.90;26.20;102203.00;;;;5015562;28;20279;-66
2022/07/05 07:29:32;;;;;;;6.03;1.42;;;26.10;99.90;24.70;102202.00;;;;4999037;28;20192;-66
2022/07/05 07:32:23;;;;;;;0.20;0.20;;;24.80;99.90;23.60;102119.00;;;;5048190;28;20217;-66
2022/07/05 07:35:26;;;;;;;2.35;1.55;;;23.10;99.90;22.60;102158.00;;;;5015642;28;20275;-67
2022/07/05 07:38:17;;;;;;;0.65;0.65;;;23.10;99.90;21.20;102115.00;;;;5015062;28;20242;-66
2022/07/05 07:41:21;;;;;;;1.27;0.63;;;21.60;99.90;21.20;102104.00;;;;5016853;28;20286;-66
2022/07/05 07:44:40;;;;;;;4.10;0.95;;;20.70;99.90;20.70;102106.00;;;;5014971;28;20278;-66
2022/07/05 07:47:25;;;;;;;2.83;2.60;;;20.50;99.90;22.30;102143.00;;;;5015414;28;20188;-66
2022/07/05 07:50:26;;;;;;;1.65;1.55;;;21.10;99.90;21.00;102112.00;;;;4998953;28;20303;-65
2022/07/05 07:53:13;;;;;;;1.05;1.00;;;20.50;99.90;20.90;102112.00;;;;5016171;28;20214;-66
2022/07/05 07:56:14;;;;;;;3.67;2.10;;;20.50;99.90;21.20;102118.00;;;;5016407;28;20174;-66
2022/07/05 07:58:59;;;;;;;2.75;1.90;;;20.80;99.90;22.20;102146.00;;;;5016232;28;20180;-66
2022/07/05 08:02:07;;;;;;;0.63;0.63;;;21.30;99.90;22.80;102156.00;;;;5014964;28;20178;-66
2022/07/05 08:04:57;;;;;;;1.50;1.50;;;21.90;99.90;24.30;102189.00;;;;5013877;28;20207;-66
2022/07/05 08:08:01;;;;;;;0.88;0.88;;;23.40;99.90;22.10;102167.00;;;;5014730;28;20171;-66
2022/07/05 08:11:07;;;;;;;0.22;0.22;;;22.80;99.90;23.10;102170.00;;;;5014588;28;20572;-66
2022/07/05 08:13:52;;;;;;;0.80;0.47;;;22.70;99.90;22.00;102141.00;;;;5014506;28;20627;-66
2022/07/05 08:16:56;;;;;;;0.30;0.30;;;22.30;99.90;21.50;102132.00;;;;5014768;28;20187;-66
2022/07/05 08:23:09;;;;;;;0.65;0.65;;;21.20;99.90;22.70;102149.00;;;;5014858;28;20214;-66
2022/07/05 08:26:01;;;;;;;0.10;0.10;;;21.50;99.90;23.80;102166.00;;;;5014481;28;20271;-66
2022/07/05 08:29:10;;;;;;;0.10;0.10;;;22.20;99.90;25.10;102179.00;;;;5015680;28;20274;-66
2022/07/05 08:32:14;;;;;;;0.10;0.10;;;23.70;99.90;24.00;102197.00;;;;5014227;28;20215;-66
2022/07/05 08:35:15;;;;;;;0.20;0.20;;;23.70;99.90;26.00;102216.00;;;;5047118;28;20245;-66
2022/07/05 08:38:24;;;;;;;1.55;0.90;;;24.10;99.90;23.50;102212.00;;;;5014302;28;20195;-66
2022/07/05 08:41:31;;;;;;;1.25;1.15;;;24.10;99.90;22.30;102176.00;;;;5020542;28;20183;-66
2022/07/05 08:44:27;;;;;;;0.60;0.60;;;22.20;99.90;23.20;102192.00;;;;5014002;28;20194;-66
2022/07/05 08:47:12;;;;;;;0.65;0.50;;;22.40;99.90;23.20;102152.00;;;;5014678;28;20631;-66
2022/07/05 08:49:50;;;;;;;0.17;0.17;;;22.30;99.90;24.60;102201.00;;;;5013879;28;20183;-66
2022/07/05 08:52:35;;;;;;;4.50;1.05;;;23.40;99.90;23.60;102210.00;;;;5014156;28;20594;-66
2022/07/05 08:55:19;;;;;;;0.10;0.10;;;23.50;99.90;25.10;102225.00;;;;5013892;28;20642;-66
2022/07/05 08:58:23;;;;;;;0.30;0.30;;;23.50;99.90;26.40;102245.00;;;;5014071;28;20270;-66
2022/07/05 09:01:11;;;;;;;9.05;0.55;;;24.80;99.90;23.80;102224.00;;;;5031616;28;20249;-66
2022/07/05 09:04:05;;;;;;;4.15;1.35;;;23.90;99.90;24.30;102240.00;;;;5013877;28;20250;-66
2022/07/05 09:07:20;;;;;;;0.20;0.20;;;23.90;99.90;24.80;102230.00;;;;5014019;28;20190;-67
2022/07/05 09:10:12;;;;;;;0.20;0.20;;;23.30;99.90;24.20;102227.00;;;;5045799;28;20203;-67
2022/07/05 09:12:57;;;;;;;0.17;0.17;;;23.40;99.90;23.60;102200.00;;;;5013892;28;20211;-66
2022/07/05 09:16:01;;;;;;;0.32;0.25;;;22.80;99.90;25.80;102258.00;;;;5013255;28;20191;-67
2022/07/05 09:18:44;;;;;;;11.60;1.98;;;23.80;99.90;24.70;102287.00;;;;5014670;28;20622;-67
2022/07/05 09:21:39;;;;;;;0.90;0.40;;;24.20;99.90;23.80;102258.00;;;;5013600;28;20262;-67
2022/07/05 09:24:23;;;;;;;0.10;0.10;;;23.50;99.90;25.90;102274.00;;;;5010400;28;20196;-67
2022/07/05 09:27:26;;;;;;;0.10;0.10;;;24.00;99.90;28.10;102293.00;;;;4997656;28;20192;-67
2022/07/05 09:30:41;;;;;;;0.57;0.57;;;25.80;99.90;28.50;102279.00;;;;4997369;28;20206;-67
2022/07/05 09:33:47;;;;;;;0.10;0.10;;;26.70;99.90;28.90;102285.00;;;;5001492;28;20230;-67
2022/07/05 09:36:55;;;;;;;3.25;0.43;;;27.40;99.90;27.30;102266.00;;;;5028244;28;20187;-67
2022/07/05 09:40:02;;;;;;;0.10;0.10;;;26.60;99.90;27.10;102295.00;;;;5013636;28;20185;-67
2022/07/05 09:43:12;;;;;;;0.10;0.10;;;26.00;99.90;26.80;102283.00;;;;5013323;28;20226;-67
2022/07/05 09:46:19;;;;;;;0.50;0.50;;;25.70;99.90;24.60;102276.00;;;;5012983;28;20639;-67
2022/07/05 09:49:31;;;;;;;2.05;1.85;;;24.10;99.90;23.90;102224.00;;;;5011205;28;20561;-66
2022/07/05 09:52:29;;;;;;;1.27;0.98;;;23.60;99.90;24.30;102234.00;;;;5014279;28;20214;-67
2022/07/05 09:55:24;;;;;;;0.65;0.65;;;23.30;99.90;26.00;102286.00;;;;5014056;28;20272;-67
2022/07/05 09:58:26;;;;;;;0.20;0.20;;;24.40;99.90;27.60;102292.00;;;;5013475;28;20662;-67
2022/07/05 10:01:24;;;;;;;0.68;0.68;;;25.60;99.90;28.10;102296.00;;;;5012704;28;20187;-67
2022/07/05 10:04:13;;;;;;;0.68;0.65;;;26.40;99.90;26.40;102294.00;;;;5013674;28;20176;-67
2022/07/05 10:07:30;;;;;;;0.10;0.10;;;26.10;99.90;26.90;102297.00;;;;5013787;28;20179;-67
2022/07/05 10:10:24;;;;;;;0.10;0.10;;;25.70;99.90;27.50;102304.00;;;;5013833;28;20180;-67
2022/07/05 10:13:43;;;;;;;0.20;0.20;;;25.80;99.90;27.40;102286.00;;;;5012733;28;20270;-67
2022/07/05 10:16:34;;;;;;;0.52;0.30;;;26.00;99.90;28.60;102308.00;;;;5012663;28;20183;-67
2022/07/05 10:19:38;;;;;;;0.10;0.10;;;26.90;99.90;30.00;102292.00;;;;4998643;28;20171;-67
2022/07/05 10:33:48;;;;;;;0.82;0.82;;;26.10;99.90;26.20;102284.00;;;;5110952;27;20545;-67
2022/07/05 10:36:49;;;;;;;0.10;0.10;;;26.40;99.90;28.00;102309.00;;;;5106262;28;20702;-67
2022/07/05 10:39:55;;;;;;;0.20;0.20;;;26.50;99.90;27.70;102325.00;;;;5090427;28;20647;-67
2022/07/05 10:42:46;;;;;;;0.20;0.20;;;26.40;99.90;26.80;102326.00;;;;5089490;28;20184;-67
2022/07/05 10:45:33;;;;;;;0.10;0.10;;;26.10;99.90;26.40;102325.00;;;;5106449;28;20203;-67
2022/07/05 10:48:34;;;;;;;0.10;0.10;;;25.40;99.90;26.00;102334.00;;;;5106028;28;20192;-67
2022/07/05 10:51:18;;;;;;;0.10;0.10;;;25.10;99.90;24.80;102331.00;;;;5090177;28;20184;-67
2022/07/05 10:54:00;;;;;;;0.10;0.10;;;24.40;99.90;25.30;102337.00;;;;5090760;28;20699;-67
2022/07/05 10:57:21;;;;;;;0.10;0.10;;;24.20;99.90;25.80;102340.00;;;;5090899;28;20565;-67
2022/07/05 11:00:11;;;;;;;0.10;0.10;;;24.30;99.90;26.50;102307.00;;;;5106000;28;20181;-67
2022/07/05 11:03:07;;;;;;;0.10;0.10;;;24.70;99.90;28.10;102332.00;;;;5090268;28;20280;-67
2022/07/05 11:06:23;;;;;;;0.20;0.20;;;26.30;99.90;29.60;102323.00;;;;5106211;28;20181;-67
2022/07/05 11:11:54;;;;;;;0.55;0.55;;;28.30;99.90;28.60;102297.00;;;;5090006;28;20205;-67
2022/07/05 11:17:22;;;;;;;0.25;0.25;;;27.70;99.90;28.80;102319.00;;;;5089941;28;20636;-67
2022/07/05 11:20:05;;;;;;;0.10;0.10;;;27.60;99.90;28.80;102315.00;;;;5090248;28;20169;-67
2022/07/05 11:23:10;;;;;;;0.32;0.32;;;27.50;99.90;27.50;102298.00;;;;5105951;28;20501;-67
2022/07/05 11:26:17;;;;;;;0.35;0.35;;;26.90;99.90;26.40;102338.00;;;;5106169;28;20169;-67
2022/07/05 11:29:38;;;;;;;0.10;0.10;;;26.00;99.90;26.20;102334.00;;;;5105578;28;20177;-67
2022/07/05 11:32:28;;;;;;;0.10;0.10;;;25.40;99.90;26.70;102335.00;;;;5089571;28;20287;-67
2022/07/05 11:35:15;;;;;;;0.10;0.10;;;25.30;99.90;27.70;102322.00;;;;5088710;28;20231;-67
2022/07/05 11:42:26;;;;;;;0.20;0.20;;;28.20;99.90;32.00;102269.00;;;;5031647;28;20582;-67
2022/07/05 11:45:27;;;;;;;0.10;0.10;;;30.70;99.70;32.90;102284.00;;;;5016921;28;20183;-67
2022/07/05 11:48:51;;;;;;;0.55;0.38;;;31.60;97.60;31.70;102298.00;;;;5033717;28;20183;-67
2022/07/05 11:51:57;;;;;;;0.20;0.20;;;32.00;95.40;32.50;102286.00;;;;5021041;28;20264;-68
2022/07/05 11:54:52;;;;;;;0.15;0.15;;;31.60;94.70;32.60;102276.00;;;;5017498;28;20179;-67
2022/07/05 11:57:50;;;;;;;0.85;0.40;;;31.40;94.80;31.10;102304.00;;;;5017028;28;20222;-67
2022/07/05 12:01:19;;;;;;;0.10;0.10;;;30.30;94.60;29.10;102325.00;;;;5000453;28;20554;-67
2022/07/05 12:04:40;;;;;;;0.10;0.10;;;29.50;94.60;28.20;102333.00;;;;5033638;28;20198;-68
2022/07/05 12:07:26;;;;;;;0.20;0.20;;;27.60;96.50;28.90;102311.00;;;;5053716;28;20189;-67
2022/07/05 12:13:50;;;;;;;0.20;0.20;;;26.80;98.00;26.80;102351.00;;;;5088410;28;20544;-67
2022/07/05 12:17:14;;;;;;;0.10;0.10;;;26.20;98.20;27.20;102351.00;;;;5091465;28;20180;-67
2022/07/05 12:20:05;;;;;;;0.10;0.10;;;26.00;99.30;28.30;102345.00;;;;5074338;28;20181;-67
2022/07/05 12:23:13;;;;;;;0.57;0.57;;;26.50;99.90;26.80;102356.00;;;;5090898;28;20197;-68
2022/07/05 12:26:17;;;;;;;1.95;0.80;;;26.50;99.00;25.60;102361.00;;;;5090931;28;20169;-66
2022/07/05 12:29:36;;;;;;;0.30;0.30;;;25.50;99.50;25.90;102364.00;;;;5074957;28;20177;-66
2022/07/05 12:32:23;;;;;;;0.22;0.22;;;24.80;99.90;27.00;102350.00;;;;5090565;28;20669;-68
2022/07/05 12:35:26;;;;;;;0.15;0.15;;;25.60;99.90;27.10;102356.00;;;;5090623;28;20165;-69
2022/07/05 12:38:16;;;;;;;0.20;0.20;;;25.70;99.90;27.70;102347.00;;;;5075408;28;20330;-69
2022/07/05 12:41:23;;;;;;;0.25;0.25;;;26.00;99.50;27.50;102307.00;;;;5075136;28;20315;-69
2022/07/05 12:43:59;;;;;;;0.47;0.45;;;26.00;98.80;27.00;102348.00;;;;5073579;28;20182;-67
2022/07/05 12:47:24;;;;;;;0.20;0.20;;;26.00;98.10;25.30;102364.00;;;;5090591;28;20681;-67
2022/07/05 12:50:14;;;;;;;0.10;0.10;;;25.10;98.80;25.60;102385.00;;;;5073314;28;20201;-67
2022/07/05 13:00:04;;;;;;;0.82;0.82;;;24.60;99.90;26.20;102384.00;;;;5088103;28;20309;-68
2022/07/05 13:03:00;;;;;;;0.10;0.10;;;24.90;99.90;26.10;102344.00;;;;5075246;28;20242;-67
2022/07/05 13:06:02;;;;;;;0.20;0.20;;;24.90;99.70;26.10;102378.00;;;;5090432;28;20189;-67
2022/07/05 13:09:05;;;;;;;0.10;0.10;;;24.90;99.90;26.90;102361.00;;;;5075013;28;20200;-67
2022/07/05 13:12:18;;;;;;;0.10;0.10;;;25.20;99.90;26.10;102378.00;;;;5089750;28;20193;-66
2022/07/05 13:15:24;;;;;;;0.10;0.10;;;25.20;99.80;26.40;102375.00;;;;5090147;28;20239;-67
2022/07/05 13:18:11;;;;;;;0.40;0.40;;;25.10;99.90;25.50;102385.00;;;;5090435;28;20177;-67
2022/07/05 13:21:08;;;;;;;0.32;0.32;;;24.50;99.90;24.40;102398.00;;;;5074206;28;20181;-67
2022/07/05 13:24:29;;;;;;;0.43;0.30;;;24.00;99.90;24.50;102409.00;;;;5074259;28;20342;-66
2022/07/05 13:27:20;;;;;;;0.52;0.40;;;23.60;99.90;24.40;102416.00;;;;5072940;28;20172;-66
2022/07/05 13:30:24;;;;;;;0.10;0.10;;;23.60;99.90;25.10;102398.00;;;;5074284;28;20253;-65
2022/07/05 13:33:43;;;;;;;0.10;0.10;;;23.70;99.90;25.40;102417.00;;;;5074485;28;20197;-65
2022/07/05 13:36:45;;;;;;;0.10;0.10;;;24.00;99.90;25.80;102405.00;;;;5089576;28;20696;-66
2022/07/05 13:39:46;;;;;;;0.10;0.10;;;24.20;99.90;26.00;102410.00;;;;5089900;28;20207;-66
2022/07/05 13:42:37;;;;;;;0.45;0.20;;;24.40;99.90;24.50;102408.00;;;;5073661;28;20203;-66